Terminal Aerodrome Forecast
Issued by NWS Chicago, IL

Home | Current Version | Previous Version | Text Only | Print | Product List | Glossary Off
Versions: 1 2 3 4 5 6 7 8 9 10 11 12 13 14 15 16 17 18 19 20 21 22 23 24 25 26

666
FTUS43 KLOT 281500 AAA
TAFRFD
TAF AMD
KRFD 281500Z 2815/2912 18016G25KT 4SM SHRA VCTS SCT008 OVC045CB
     FM281600 19017G27KT P6SM SCT007 BKN050
     FM282100 19019G30KT P6SM VCTS BKN070CB
     FM290000 20018G28KT P6SM VCTS SCT030 OVC050CB
      TEMPO 2901/2905 2SM TSRA OVC030CB
     FM290500 22013G21KT P6SM OVC070=

USA.gov is the U.S. government's official web portal to all federal, state and local government web resources and services.